createdAt,value
2017-10-11T00:03:11.959Z,1007.94
2017-10-11T00:13:11.919Z,1007.91
2017-10-11T00:23:11.999Z,1007.81
2017-10-11T00:33:11.953Z,1007.89
2017-10-11T00:43:11.908Z,1007.8
2017-10-11T00:53:11.971Z,1007.79
2017-10-11T01:03:11.931Z,1007.78
2017-10-11T01:13:11.933Z,1007.8
2017-10-11T01:23:11.953Z,1007.74
2017-10-11T01:33:12.052Z,1007.78
2017-10-11T01:43:11.990Z,1007.75
2017-10-11T01:53:12.044Z,1007.74
2017-10-11T02:03:12.013Z,1007.74
2017-10-11T02:13:12.064Z,1007.85
2017-10-11T02:23:12.023Z,1007.76
2017-10-11T02:33:12.105Z,1007.62
2017-10-11T02:43:12.063Z,1007.64
2017-10-11T02:53:12.108Z,1007.54
2017-10-11T03:03:12.091Z,1007.53
2017-10-11T03:13:12.135Z,1007.57
2017-10-11T03:23:12.099Z,1007.45
2017-10-11T03:33:12.182Z,1007.35
2017-10-11T03:43:12.128Z,1007.45
2017-10-11T03:53:12.202Z,1007.38
2017-10-11T04:03:12.154Z,1007.34
2017-10-11T04:13:12.099Z,1007.33
2017-10-11T04:23:12.176Z,1007.35
2017-10-11T04:33:12.125Z,1007.28
2017-10-11T04:43:12.195Z,1007.26
2017-10-11T04:53:12.154Z,1007.26
2017-10-11T05:03:12.234Z,1007.13
2017-10-11T05:13:12.196Z,1007.16
2017-10-11T05:23:12.249Z,1007.14
2017-10-11T05:33:12.205Z,1007.31
2017-10-11T05:43:12.271Z,1007.38
2017-10-11T05:53:12.227Z,1007.4
2017-10-11T06:03:12.304Z,1007.53
2017-10-11T06:13:12.221Z,1007.55
2017-10-11T06:23:12.218Z,1007.65
2017-10-11T06:33:12.237Z,1007.77
2017-10-11T06:43:12.246Z,1007.75
2017-10-11T06:53:12.248Z,1007.86
2017-10-11T07:03:12.291Z,1007.85
2017-10-11T07:13:12.259Z,1007.95
2017-10-11T07:23:12.274Z,1007.94
2017-10-11T07:33:12.295Z,1007.91
2017-10-11T07:43:12.315Z,1007.93
2017-10-11T07:53:12.327Z,1007.93
2017-10-11T08:03:12.327Z,1008.08
2017-10-11T08:13:12.325Z,1008.11
2017-10-11T08:23:12.337Z,1008.16
2017-10-11T08:33:12.353Z,1008.24
2017-10-11T08:43:12.378Z,1008.17
2017-10-11T08:53:12.359Z,1008.19
2017-10-11T09:03:12.392Z,1008.26
2017-10-11T09:13:12.392Z,1008.3
2017-10-11T09:23:12.385Z,1008.34
2017-10-11T09:33:12.414Z,1008.26
2017-10-11T09:43:12.407Z,1008.22
2017-10-11T09:53:12.542Z,1008.3
2017-10-11T10:13:12.543Z,1008.31
2017-10-11T10:33:12.465Z,1008.36
2017-10-11T10:43:12.511Z,1008.35
2017-10-11T10:53:13.607Z,1008.37
2017-10-11T11:13:13.526Z,1008.11
2017-10-11T11:23:12.573Z,1007.97
2017-10-11T11:33:12.550Z,1007.98
2017-10-11T11:43:12.539Z,1007.83
2017-10-11T11:53:12.551Z,1007.8
2017-10-11T12:03:12.546Z,1007.73
2017-10-11T12:13:12.590Z,1007.65
2017-10-11T12:23:12.579Z,1007.56
2017-10-11T12:33:12.590Z,1007.52
2017-10-11T12:43:12.605Z,1007.35
2017-10-11T12:53:12.632Z,1007.37
2017-10-11T13:03:12.630Z,1007.25
2017-10-11T13:13:12.645Z,1007.28
2017-10-11T13:23:12.651Z,1007.26
2017-10-11T13:33:12.632Z,1007.23
2017-10-11T13:43:12.652Z,1007.1
2017-10-11T13:53:12.633Z,1007.24
2017-10-11T14:03:12.627Z,1007.15
2017-10-11T14:13:12.632Z,1007.14
2017-10-11T14:23:12.685Z,1007.12
2017-10-11T14:33:12.632Z,1007.13
2017-10-11T14:43:12.672Z,1006.98
2017-10-11T14:53:12.642Z,1007
2017-10-11T15:03:12.656Z,1006.88
2017-10-11T15:13:12.626Z,1006.84
2017-10-11T15:23:12.670Z,1006.9
2017-10-11T15:33:12.655Z,1006.96
2017-10-11T15:43:12.659Z,1006.85
2017-10-11T15:53:12.646Z,1006.87
2017-10-11T16:03:12.693Z,1006.85
2017-10-11T16:13:12.764Z,1006.76
2017-10-11T16:23:12.729Z,1006.78
2017-10-11T16:33:12.785Z,1006.72
2017-10-11T16:43:12.716Z,1006.69
2017-10-11T16:53:12.680Z,1006.67
2017-10-11T17:03:12.715Z,1006.62
2017-10-11T17:13:12.726Z,1006.7
2017-10-11T17:23:12.725Z,1006.67
2017-10-11T17:33:12.730Z,1006.64
2017-10-11T17:43:12.760Z,1006.62
2017-10-11T17:53:12.769Z,1006.64
2017-10-11T18:03:12.753Z,1006.56
2017-10-11T18:13:12.801Z,1006.65
2017-10-11T18:23:12.774Z,1006.59
2017-10-11T18:33:12.779Z,1006.58
2017-10-11T18:43:12.805Z,1006.42
2017-10-11T18:53:12.817Z,1006.3
2017-10-11T19:03:12.917Z,1006.31
2017-10-11T19:13:12.894Z,1006.25
2017-10-11T19:23:12.835Z,1006.26
2017-10-11T19:33:12.890Z,1006.26
2017-10-11T19:43:12.959Z,1006.31
2017-10-11T19:53:12.914Z,1006.33
2017-10-11T20:03:12.979Z,1006.3
2017-10-11T20:13:13.959Z,1006.22
2017-10-11T20:23:12.906Z,1006.3
2017-10-11T20:33:12.974Z,1006.24
2017-10-11T20:43:13.050Z,1006.14
2017-10-11T20:53:12.991Z,1006.1
2017-10-11T21:03:13.976Z,1006
2017-10-11T21:13:13.042Z,1005.97
2017-10-11T21:23:12.974Z,1005.92
2017-10-11T21:33:13.032Z,1005.83
2017-10-11T21:43:12.978Z,1005.68
2017-10-11T21:53:13.058Z,1005.72
2017-10-11T22:03:13.025Z,1005.73
2017-10-11T22:13:13.017Z,1005.62
2017-10-11T22:23:12.978Z,1005.45
2017-10-11T22:33:13.088Z,1005.5
2017-10-11T22:43:13.032Z,1005.25
2017-10-11T22:53:13.063Z,1005.17
2017-10-11T23:03:13.027Z,1005.13
2017-10-11T23:13:13.076Z,1005.12
2017-10-11T23:23:13.041Z,1004.85
2017-10-11T23:33:13.099Z,1004.6
2017-10-11T23:43:13.057Z,1004.59
2017-10-11T23:53:13.144Z,1004.51
